Time;durP1;ratioP1;P1;durP2;ratioP2;P2;SDS_P1;SDS_P2;PMS_P1;PMS_P2;Temp;Humidity;BMP_temperature;BMP_pressure;BME280_temperature;BME280_humidity;BME280_pressure;Samples;Min_cycle;Max_cycle;Signal;HPM_P1;HPM_P2
2023/05/24 00:01:54;;;;;;;23.15;4.78;;;9.10;99.90;;;;;;5098567;28;20084;-55
2023/05/24 00:04:21;;;;;;;23.85;4.72;;;9.20;99.90;;;;;;5099175;28;20040;-56
2023/05/24 00:06:47;;;;;;;23.10;5.60;;;9.40;99.90;;;;;;5079496;28;20079;-56
2023/05/24 00:09:13;;;;;;;21.92;5.15;;;9.30;99.90;;;;;;5080924;28;20043;-56
2023/05/24 00:11:38;;;;;;;18.25;4.68;;;9.40;99.90;;;;;;5097326;28;20040;-55
2023/05/24 00:14:04;;;;;;;25.33;4.43;;;9.50;99.90;;;;;;5099344;28;20059;-56
2023/05/24 00:16:30;;;;;;;23.60;5.43;;;9.40;99.90;;;;;;5097678;28;20165;-55
2023/05/24 00:18:57;;;;;;;19.50;4.43;;;9.50;99.90;;;;;;5098273;28;20125;-56
2023/05/24 00:21:22;;;;;;;21.17;5.25;;;9.50;99.90;;;;;;5098353;28;20555;-54
2023/05/24 00:23:50;;;;;;;17.67;5.30;;;9.50;99.90;;;;;;5097624;28;20040;-56
2023/05/24 00:26:16;;;;;;;21.35;4.88;;;9.50;99.90;;;;;;5099122;28;20099;-56
2023/05/24 00:28:42;;;;;;;16.73;5.65;;;9.50;99.90;;;;;;5097093;28;20047;-55
2023/05/24 00:31:08;;;;;;;22.63;4.88;;;9.50;99.90;;;;;;5098965;28;20162;-56
2023/05/24 00:33:33;;;;;;;21.15;5.22;;;9.60;99.90;;;;;;5097036;28;20075;-55
2023/05/24 00:35:59;;;;;;;21.02;4.43;;;9.60;99.90;;;;;;5080289;28;20488;-54
2023/05/24 00:38:25;;;;;;;23.60;4.72;;;9.60;99.90;;;;;;5098189;28;20047;-55
2023/05/24 00:40:52;;;;;;;22.70;4.93;;;9.50;99.90;;;;;;5097198;28;20059;-56
2023/05/24 00:43:18;;;;;;;18.98;4.68;;;9.50;99.90;;;;;;5098747;28;20047;-55
2023/05/24 00:45:44;;;;;;;19.65;4.28;;;9.40;99.90;;;;;;5096381;28;20105;-55
2023/05/24 00:48:10;;;;;;;24.08;4.68;;;9.30;99.90;;;;;;5080395;28;20032;-56
2023/05/24 00:50:38;;;;;;;20.23;4.78;;;9.20;99.90;;;;;;5096657;28;20070;-54
2023/05/24 00:53:05;;;;;;;24.33;4.50;;;9.20;99.90;;;;;;5080172;28;20116;-54
2023/05/24 00:55:33;;;;;;;19.38;4.88;;;9.30;99.90;;;;;;5079562;28;20096;-56
2023/05/24 00:57:59;;;;;;;20.08;4.97;;;9.20;99.90;;;;;;5097281;28;20107;-55
2023/05/24 01:00:26;;;;;;;20.60;4.13;;;9.10;99.90;;;;;;5098188;28;20071;-56
2023/05/24 01:02:53;;;;;;;20.73;6.25;;;9.10;99.90;;;;;;5096501;28;20510;-56
2023/05/24 01:05:20;;;;;;;21.73;4.80;;;9.00;99.90;;;;;;5098788;28;20051;-55
2023/05/24 01:08:27;;;;;;;18.48;4.72;;;9.00;99.90;;;;;;5096845;28;20048;-55
2023/05/24 01:11:05;;;;;;;20.00;4.88;;;9.00;99.90;;;;;;5077867;28;20098;-54
2023/05/24 01:13:43;;;;;;;21.83;5.53;;;9.00;99.90;;;;;;5098079;28;20040;-56
2023/05/24 01:16:35;;;;;;;17.73;4.88;;;9.00;99.90;;;;;;5096474;28;20076;-55
2023/05/24 01:19:11;;;;;;;20.70;4.35;;;8.90;99.90;;;;;;5097422;28;20096;-55
2023/05/24 01:21:58;;;;;;;18.80;4.90;;;8.90;99.90;;;;;;5097871;28;20044;-55
2023/05/24 01:24:54;;;;;;;21.08;4.38;;;8.90;99.90;;;;;;5096418;28;20044;-54
2023/05/24 01:27:22;;;;;;;22.67;5.20;;;8.80;99.90;;;;;;5098008;28;20044;-55
2023/05/24 01:29:52;;;;;;;19.05;4.18;;;8.80;99.90;;;;;;5097352;28;20052;-54
2023/05/24 01:32:21;;;;;;;22.65;4.32;;;8.90;99.90;;;;;;5096681;28;20071;-55
2023/05/24 01:34:46;;;;;;;25.42;5.07;;;8.90;99.90;;;;;;5098297;28;20043;-53
2023/05/24 01:37:12;;;;;;;18.33;5.03;;;8.90;99.90;;;;;;5096388;28;20103;-55
2023/05/24 01:39:39;;;;;;;19.67;5.00;;;9.00;99.90;;;;;;5098252;28;20050;-56
2023/05/24 01:42:18;;;;;;;18.42;3.95;;;9.00;99.90;;;;;;5096558;28;20060;-54
2023/05/24 01:45:07;;;;;;;16.48;3.80;;;9.10;99.90;;;;;;5097275;28;20052;-54
2023/05/24 01:48:10;;;;;;;20.75;4.85;;;9.10;99.90;;;;;;5098178;28;20098;-55
2023/05/24 01:50:42;;;;;;;31.17;5.18;;;9.10;99.90;;;;;;5058912;28;20056;-55
2023/05/24 01:53:11;;;;;;;16.50;4.10;;;9.20;99.90;;;;;;5097301;28;20059;-55
2023/05/24 01:55:37;;;;;;;24.40;5.00;;;9.10;99.90;;;;;;5097403;28;20051;-54
2023/05/24 01:58:05;;;;;;;23.88;4.13;;;9.10;99.90;;;;;;5079603;28;20122;-55
2023/05/24 02:00:33;;;;;;;21.35;4.50;;;9.20;99.90;;;;;;5101498;28;20474;-54
2023/05/24 02:03:00;;;;;;;22.65;4.35;;;9.10;99.90;;;;;;5099927;28;20048;-55
2023/05/24 02:05:26;;;;;;;16.80;4.10;;;9.20;99.90;;;;;;5101685;28;20095;-54
2023/05/24 02:07:52;;;;;;;23.00;4.53;;;9.10;99.90;;;;;;5100286;28;20032;-56
2023/05/24 02:10:18;;;;;;;17.73;4.50;;;9.10;99.90;;;;;;5101291;28;20136;-55
2023/05/24 02:12:44;;;;;;;15.48;4.82;;;9.10;99.90;;;;;;5100843;28;20066;-55
2023/05/24 02:15:10;;;;;;;15.48;3.80;;;9.20;99.90;;;;;;5100045;28;20090;-56
2023/05/24 02:17:36;;;;;;;20.05;3.88;;;9.10;99.90;;;;;;5101586;28;20047;-55
2023/05/24 02:20:02;;;;;;;14.00;3.83;;;9.10;99.90;;;;;;5099614;28;20100;-55
2023/05/24 02:22:28;;;;;;;26.23;4.47;;;9.20;99.90;;;;;;5101817;28;20040;-55
2023/05/24 02:24:54;;;;;;;19.92;3.80;;;9.20;99.90;;;;;;5081564;28;20070;-52
2023/05/24 02:27:19;;;;;;;18.75;3.55;;;9.30;99.90;;;;;;5101007;28;20151;-55
2023/05/24 02:29:46;;;;;;;23.58;4.22;;;9.10;99.90;;;;;;5082263;28;20040;-56
2023/05/24 02:32:12;;;;;;;22.17;4.38;;;9.20;99.90;;;;;;5099576;28;20107;-55
2023/05/24 02:34:38;;;;;;;18.77;4.10;;;9.30;99.90;;;;;;5100468;28;20071;-55
2023/05/24 02:37:04;;;;;;;17.65;3.80;;;9.20;99.90;;;;;;5099019;28;20070;-55
2023/05/24 02:39:29;;;;;;;17.40;3.75;;;9.30;99.90;;;;;;5100898;28;20055;-55
2023/05/24 02:41:55;;;;;;;17.40;3.88;;;9.30;99.90;;;;;;5099372;28;20051;-56
2023/05/24 02:44:21;;;;;;;16.27;3.80;;;9.20;99.90;;;;;;5100645;28;20044;-55
2023/05/24 02:46:46;;;;;;;16.23;3.92;;;9.30;99.90;;;;;;5099972;28;20040;-54
2023/05/24 02:49:12;;;;;;;16.30;4.15;;;9.40;99.90;;;;;;5099185;28;20733;-55
2023/05/24 02:51:38;;;;;;;22.20;4.25;;;9.30;99.90;;;;;;5100509;28;20156;-56
2023/05/24 02:54:03;;;;;;;22.23;5.13;;;9.40;99.90;;;;;;5098773;28;20142;-55
2023/05/24 02:56:29;;;;;;;20.38;4.68;;;9.40;99.90;;;;;;5100644;28;20562;-53
2023/05/24 02:58:55;;;;;;;16.55;3.85;;;9.50;99.90;;;;;;5099124;28;20040;-55
2023/05/24 03:01:21;;;;;;;21.75;5.07;;;9.40;99.90;;;;;;5100255;28;20032;-56
2023/05/24 03:03:47;;;;;;;24.45;5.03;;;9.40;99.90;;;;;;5099525;28;20093;-56
2023/05/24 03:06:14;;;;;;;20.42;4.20;;;9.50;99.90;;;;;;5099393;28;20441;-54
2023/05/24 03:08:40;;;;;;;16.63;5.38;;;9.50;99.90;;;;;;5099903;28;20526;-55
2023/05/24 03:11:06;;;;;;;18.40;4.07;;;9.40;99.90;;;;;;5098162;28;20119;-55
2023/05/24 03:13:32;;;;;;;19.10;5.18;;;9.50;99.90;;;;;;5100178;28;20576;-55
2023/05/24 03:15:57;;;;;;;16.30;4.10;;;9.50;99.90;;;;;;5098617;28;20040;-54
2023/05/24 03:18:23;;;;;;;17.92;4.30;;;9.60;99.90;;;;;;5100147;28;20040;-55
2023/05/24 03:20:49;;;;;;;16.38;3.63;;;9.60;99.90;;;;;;5099072;28;20048;-54
2023/05/24 03:23:15;;;;;;;20.25;4.03;;;9.60;99.90;;;;;;5099358;28;20052;-55
2023/05/24 03:25:41;;;;;;;23.73;4.35;;;9.60;99.90;;;;;;5099978;28;20051;-56
2023/05/24 03:28:07;;;;;;;17.88;4.20;;;9.70;99.90;;;;;;5098088;28;20048;-55
2023/05/24 03:30:32;;;;;;;14.95;3.67;;;9.60;99.90;;;;;;5099755;28;20036;-56
2023/05/24 03:32:58;;;;;;;19.38;3.67;;;9.60;99.90;;;;;;5098031;28;20048;-55
2023/05/24 03:35:24;;;;;;;20.58;3.95;;;9.90;99.90;;;;;;5099835;28;20792;-54
2023/05/24 03:37:50;;;;;;;16.23;3.60;;;9.70;99.90;;;;;;5098701;28;20048;-56
2023/05/24 03:40:15;;;;;;;18.00;4.90;;;9.70;99.90;;;;;;5099296;28;20108;-55
2023/05/24 03:42:41;;;;;;;18.55;4.20;;;9.70;99.90;;;;;;5099425;28;20036;-55
2023/05/24 03:45:07;;;;;;;28.65;6.63;;;9.70;99.90;;;;;;5098032;28;20062;-56
2023/05/24 03:47:33;;;;;;;19.58;3.67;;;9.70;99.90;;;;;;5099494;28;20047;-56
2023/05/24 03:49:59;;;;;;;23.80;3.95;;;9.70;99.90;;;;;;5078635;28;20685;-55
2023/05/24 03:52:25;;;;;;;15.48;3.17;;;9.80;99.90;;;;;;5079273;28;20115;-54
2023/05/24 03:54:50;;;;;;;18.25;3.60;;;9.70;99.90;;;;;;5077542;28;20055;-55
2023/05/24 03:57:16;;;;;;;16.90;3.92;;;9.70;99.90;;;;;;5078982;28;20083;-55
2023/05/24 03:59:42;;;;;;;23.10;4.10;;;9.80;99.90;;;;;;5078342;28;20041;-55
2023/05/24 04:02:08;;;;;;;21.65;3.92;;;9.70;99.90;;;;;;5077074;28;20040;-56
2023/05/24 04:04:33;;;;;;;17.90;3.13;;;9.90;99.90;;;;;;5078786;28;20056;-56
2023/05/24 04:06:59;;;;;;;21.92;4.05;;;9.90;99.90;;;;;;5076940;28;20036;-56
2023/05/24 04:09:25;;;;;;;16.38;4.05;;;10.00;99.90;;;;;;5079144;28;20040;-55
2023/05/24 04:11:50;;;;;;;30.65;5.20;;;9.80;99.90;;;;;;5076848;28;20064;-56
2023/05/24 04:14:16;;;;;;;21.75;4.63;;;9.90;99.90;;;;;;5060438;28;20083;-55
2023/05/24 04:16:43;;;;;;;19.02;4.15;;;10.00;99.90;;;;;;5077806;28;20140;-56
2023/05/24 04:19:10;;;;;;;21.95;4.32;;;10.00;99.90;;;;;;5077505;28;20098;-55
2023/05/24 04:21:37;;;;;;;18.40;4.38;;;10.00;99.90;;;;;;5077779;28;20120;-56
2023/05/24 04:24:06;;;;;;;25.48;4.57;;;9.90;99.90;;;;;;5058676;28;20051;-55
2023/05/24 04:26:33;;;;;;;24.80;3.92;;;9.80;99.90;;;;;;5078945;28;20091;-55
2023/05/24 04:28:59;;;;;;;16.02;4.15;;;9.90;99.90;;;;;;5076723;28;20096;-53
2023/05/24 04:31:28;;;;;;;13.63;4.55;;;9.80;99.90;;;;;;5078023;28;20036;-55
2023/05/24 04:33:54;;;;;;;21.90;4.15;;;9.70;99.90;;;;;;5077713;28;20052;-55
2023/05/24 04:36:21;;;;;;;21.40;3.88;;;9.80;99.90;;;;;;5077083;28;20044;-55
2023/05/24 04:38:47;;;;;;;21.20;4.65;;;9.60;99.90;;;;;;5078405;28;20048;-55
2023/05/24 04:41:13;;;;;;;20.83;4.15;;;9.60;99.90;;;;;;5061732;28;20131;-55
2023/05/24 04:43:39;;;;;;;19.58;4.55;;;9.70;99.90;;;;;;5058730;28;20045;-55
2023/05/24 04:46:05;;;;;;;18.40;4.25;;;9.70;99.90;;;;;;5056416;28;20064;-55
2023/05/24 04:48:30;;;;;;;23.52;3.60;;;9.70;99.90;;;;;;5058370;28;20041;-55
2023/05/24 04:50:57;;;;;;;18.02;3.33;;;9.70;99.90;;;;;;5057164;28;20045;-54
2023/05/24 04:53:23;;;;;;;20.20;4.47;;;9.70;99.90;;;;;;5056922;28;20616;-54
2023/05/24 04:55:49;;;;;;;22.08;3.88;;;9.70;99.90;;;;;;5040107;28;20567;-55
2023/05/24 04:58:15;;;;;;;18.33;4.50;;;9.90;99.90;;;;;;5056215;28;20056;-55
2023/05/24 05:00:42;;;;;;;20.65;3.95;;;9.80;99.90;;;;;;5040099;28;20098;-55
2023/05/24 05:03:08;;;;;;;18.60;4.07;;;9.90;99.90;;;;;;5056458;28;20056;-54
2023/05/24 05:05:34;;;;;;;16.58;3.50;;;10.00;99.90;;;;;;5058008;28;20496;-55
2023/05/24 05:08:00;;;;;;;18.13;4.10;;;10.10;99.90;;;;;;5039147;28;20041;-54
2023/05/24 05:10:26;;;;;;;16.27;4.53;;;10.10;99.90;;;;;;5057229;28;20043;-54
2023/05/24 05:12:52;;;;;;;17.45;3.55;;;10.10;99.90;;;;;;5057547;28;20052;-54
2023/05/24 05:15:22;;;;;;;26.38;7.30;;;10.20;99.90;;;;;;5056049;28;20064;-55
2023/05/24 05:17:48;;;;;;;17.95;3.88;;;10.10;99.90;;;;;;5058008;28;20133;-55
2023/05/24 05:20:14;;;;;;;18.40;3.90;;;10.20;99.90;;;;;;5053217;28;20044;-54
2023/05/24 05:22:48;;;;;;;19.70;3.78;;;10.10;99.90;;;;;;5054656;28;20041;-56
2023/05/24 05:25:14;;;;;;;19.13;3.67;;;10.20;99.90;;;;;;5053629;28;20132;-52
2023/05/24 05:27:39;;;;;;;24.92;5.72;;;10.30;99.90;;;;;;5053183;28;20103;-55
2023/05/24 05:30:07;;;;;;;14.27;3.63;;;10.40;99.90;;;;;;5054227;28;20111;-55
2023/05/24 05:32:32;;;;;;;26.17;4.43;;;10.40;99.90;;;;;;5052515;28;20071;-54
2023/05/24 05:34:58;;;;;;;25.50;4.45;;;10.30;99.90;;;;;;5058363;28;20148;-54
2023/05/24 05:37:24;;;;;;;17.48;3.67;;;10.50;99.90;;;;;;5056103;28;20651;-54
2023/05/24 05:39:49;;;;;;;20.48;4.10;;;10.40;99.90;;;;;;5060475;28;20727;-56
2023/05/24 05:42:15;;;;;;;17.05;4.10;;;10.40;99.90;;;;;;5076800;28;20052;-57
2023/05/24 05:44:41;;;;;;;21.02;4.28;;;10.40;99.90;;;;;;5077110;28;20067;-57
2023/05/24 05:47:08;;;;;;;20.45;3.65;;;10.40;99.90;;;;;;5077791;28;20079;-55
2023/05/24 05:49:36;;;;;;;12.85;3.40;;;10.50;99.90;;;;;;5076498;28;20052;-55
2023/05/24 05:52:04;;;;;;;21.17;3.78;;;10.40;99.90;;;;;;5078165;28;20206;-55
2023/05/24 05:54:30;;;;;;;23.05;4.35;;;10.50;99.90;;;;;;5076274;28;20080;-56
2023/05/24 05:56:56;;;;;;;13.50;3.25;;;10.40;99.90;;;;;;5077744;28;20075;-55
2023/05/24 05:59:22;;;;;;;14.95;3.55;;;10.60;99.90;;;;;;5076834;28;20033;-56
2023/05/24 06:01:48;;;;;;;12.27;3.42;;;10.50;99.90;;;;;;5076780;28;20041;-55
2023/05/24 06:04:15;;;;;;;16.52;3.58;;;10.60;99.90;;;;;;5077615;28;20867;-53
2023/05/24 06:06:40;;;;;;;19.05;4.07;;;10.70;99.90;;;;;;5075678;28;20598;-52
2023/05/24 06:09:07;;;;;;;16.25;3.30;;;10.70;99.90;;;;;;5078119;28;20072;-56
2023/05/24 06:11:32;;;;;;;14.55;3.30;;;10.80;99.90;;;;;;5077021;28;20127;-54
2023/05/24 06:13:58;;;;;;;15.23;4.78;;;10.80;99.90;;;;;;5081063;28;20068;-55
2023/05/24 06:16:24;;;;;;;13.48;3.28;;;10.80;99.90;;;;;;5079588;28;20052;-55
2023/05/24 06:18:49;;;;;;;12.57;3.13;;;10.90;99.90;;;;;;5080057;28;20051;-56
2023/05/24 06:21:16;;;;;;;15.88;3.97;;;10.90;99.90;;;;;;5080505;28;20049;-55
2023/05/24 06:23:41;;;;;;;9.50;2.80;;;11.00;99.90;;;;;;5079716;28;20062;-55
2023/05/24 06:26:10;;;;;;;12.77;3.08;;;11.00;99.90;;;;;;5080674;28;20080;-54
2023/05/24 06:28:36;;;;;;;17.60;3.45;;;11.00;99.90;;;;;;5061624;28;20044;-55
2023/05/24 06:31:03;;;;;;;14.90;3.63;;;11.00;99.90;;;;;;5080889;28;20066;-55
2023/05/24 06:33:30;;;;;;;14.27;2.88;;;11.00;99.90;;;;;;5079351;28;20125;-55
2023/05/24 06:35:56;;;;;;;12.13;2.92;;;11.00;99.90;;;;;;5079801;28;20108;-54
2023/05/24 06:38:21;;;;;;;12.63;2.83;;;11.10;99.90;;;;;;5080100;28;20044;-54
2023/05/24 06:40:47;;;;;;;12.27;2.95;;;11.10;99.90;;;;;;5078464;28;20131;-56
2023/05/24 06:43:13;;;;;;;18.63;3.75;;;11.10;99.90;;;;;;5080599;28;20044;-56
2023/05/24 06:45:38;;;;;;;14.45;3.10;;;11.30;99.90;;;;;;5077495;28;20045;-54
2023/05/24 06:48:04;;;;;;;13.65;3.25;;;11.40;99.90;;;;;;5080556;28;20052;-55
2023/05/24 06:50:30;;;;;;;16.33;3.28;;;11.40;99.90;;;;;;5079011;28;20064;-55
2023/05/24 06:52:56;;;;;;;14.90;2.88;;;11.40;99.90;;;;;;5080007;28;20049;-55
2023/05/24 06:55:22;;;;;;;17.13;3.85;;;11.60;99.90;;;;;;5079827;28;20076;-56
2023/05/24 06:57:47;;;;;;;15.18;3.47;;;11.70;99.90;;;;;;5078742;28;20052;-55
2023/05/24 07:00:13;;;;;;;15.18;2.97;;;11.80;99.90;;;;;;5061778;28;20040;-55
2023/05/24 07:02:39;;;;;;;10.55;2.80;;;11.80;99.90;;;;;;5078015;28;20123;-54
2023/05/24 07:05:10;;;;;;;12.43;3.03;;;11.70;99.90;;;;;;5080397;28;20076;-55
2023/05/24 07:07:41;;;;;;;16.20;3.93;;;11.80;99.90;;;;;;5077964;28;20416;-56
2023/05/24 07:10:09;;;;;;;16.55;3.47;;;11.80;99.90;;;;;;5063950;28;20061;-55
2023/05/24 07:12:35;;;;;;;15.60;4.07;;;12.00;99.90;;;;;;5075916;28;20063;-55
2023/05/24 07:15:01;;;;;;;18.45;3.95;;;12.10;99.90;;;;;;5075249;28;20153;-56
2023/05/24 07:17:27;;;;;;;15.25;3.75;;;12.20;99.90;;;;;;5078374;28;20462;-56
2023/05/24 07:19:52;;;;;;;17.70;3.05;;;12.30;99.90;;;;;;5077610;28;20041;-56
2023/05/24 07:22:18;;;;;;;13.45;3.05;;;12.40;99.90;;;;;;5080094;28;20083;-55
2023/05/24 07:24:43;;;;;;;18.23;3.33;;;12.40;99.90;;;;;;5078253;28;20455;-55
2023/05/24 07:27:09;;;;;;;19.63;3.15;;;12.50;99.90;;;;;;5079340;28;20052;-53
2023/05/24 07:29:35;;;;;;;12.75;3.30;;;12.60;99.90;;;;;;5078947;28;20086;-55
2023/05/24 07:32:01;;;;;;;15.30;3.13;;;12.70;99.90;;;;;;5078095;28;20052;-56
2023/05/24 07:34:28;;;;;;;14.85;4.07;;;12.50;99.90;;;;;;5075809;28;20052;-55
2023/05/24 07:36:57;;;;;;;18.23;3.47;;;12.40;99.90;;;;;;5074311;28;20534;-56
2023/05/24 07:39:24;;;;;;;18.77;3.40;;;12.20;99.90;;;;;;5076184;28;20926;-54
2023/05/24 07:41:50;;;;;;;18.15;3.85;;;12.30;99.90;;;;;;5078493;28;20559;-55
2023/05/24 07:44:15;;;;;;;11.88;3.38;;;12.40;99.90;;;;;;5076206;28;20100;-55
2023/05/24 07:46:41;;;;;;;10.38;2.70;;;12.40;99.90;;;;;;5075267;28;20051;-55
2023/05/24 07:49:07;;;;;;;16.33;3.58;;;12.60;99.90;;;;;;5076852;28;20122;-54
2023/05/24 07:51:32;;;;;;;10.88;3.33;;;12.70;99.90;;;;;;5085752;28;20040;-55
2023/05/24 07:53:59;;;;;;;16.52;4.00;;;12.70;99.90;;;;;;5082622;28;20032;-56
2023/05/24 07:56:25;;;;;;;14.55;3.42;;;12.50;99.90;;;;;;5067907;28;20062;-56
2023/05/24 07:58:50;;;;;;;14.85;3.15;;;12.40;99.90;;;;;;5080848;28;20032;-55
2023/05/24 08:01:19;;;;;;;15.50;3.05;;;12.60;99.90;;;;;;5075906;28;20044;-55
2023/05/24 08:03:45;;;;;;;11.18;3.13;;;12.60;99.90;;;;;;5075177;28;20925;-54
2023/05/24 08:06:11;;;;;;;10.73;4.00;;;12.50;99.90;;;;;;5074811;28;20052;-56
2023/05/24 08:08:39;;;;;;;11.75;2.85;;;12.50;99.90;;;;;;5057706;28;20052;-55
2023/05/24 08:11:04;;;;;;;11.98;2.60;;;12.70;99.90;;;;;;5073858;28;20045;-55
2023/05/24 08:13:30;;;;;;;10.60;2.50;;;12.90;99.90;;;;;;5075993;28;20109;-56
2023/05/24 08:15:57;;;;;;;6.93;2.10;;;13.00;99.90;;;;;;5074067;28;20076;-55
2023/05/24 08:18:22;;;;;;;12.98;2.55;;;13.00;99.90;;;;;;5075667;28;20056;-56
2023/05/24 08:20:48;;;;;;;9.10;2.47;;;12.80;99.90;;;;;;5074841;28;20108;-52
2023/05/24 08:23:14;;;;;;;10.90;2.90;;;12.90;99.90;;;;;;5074368;28;20066;-55
2023/05/24 08:25:39;;;;;;;10.95;2.15;;;12.80;99.90;;;;;;5075449;28;20055;-54
2023/05/24 08:28:05;;;;;;;8.02;2.53;;;12.90;99.90;;;;;;5073934;28;20071;-55
2023/05/24 08:30:31;;;;;;;10.32;2.53;;;13.00;99.90;;;;;;5075510;28;20047;-55
2023/05/24 08:32:57;;;;;;;7.93;2.33;;;13.00;99.90;;;;;;5073254;28;20926;-55
2023/05/24 08:35:23;;;;;;;11.15;3.38;;;13.30;99.90;;;;;;5075540;28;20036;-53
2023/05/24 08:37:49;;;;;;;9.25;3.05;;;13.30;99.90;;;;;;5074397;28;20060;-53
2023/05/24 08:40:15;;;;;;;9.23;3.15;;;13.20;99.90;;;;;;5049481;28;20055;-55
2023/05/24 08:42:41;;;;;;;8.80;2.35;;;13.10;99.90;;;;;;5104227;28;20059;-55
2023/05/24 08:45:14;;;;;;;10.02;2.42;;;13.20;99.90;;;;;;5099307;28;20031;-54
2023/05/24 08:47:40;;;;;;;8.35;2.33;;;13.30;99.90;;;;;;5084901;28;20055;-54
2023/05/24 08:50:07;;;;;;;8.80;2.30;;;13.60;99.90;;;;;;5099862;28;20032;-54
2023/05/24 08:52:34;;;;;;;9.45;2.67;;;13.80;99.90;;;;;;5101312;28;20040;-55
2023/05/24 08:55:04;;;;;;;10.60;2.33;;;13.80;99.90;;;;;;5102101;28;20051;-55
2023/05/24 08:57:31;;;;;;;14.13;2.30;;;13.70;99.90;;;;;;5100509;28;20043;-51
2023/05/24 08:59:57;;;;;;;10.93;2.45;;;13.50;99.90;;;;;;5100966;28;20040;-56
2023/05/24 09:02:23;;;;;;;13.10;2.97;;;13.40;99.90;;;;;;5082483;28;20031;-56
2023/05/24 09:04:51;;;;;;;8.90;2.40;;;13.40;99.90;;;;;;5102034;28;20048;-53
2023/05/24 09:07:19;;;;;;;12.68;2.97;;;13.30;99.90;;;;;;5101886;28;20044;-55
2023/05/24 09:10:06;;;;;;;9.13;2.65;;;13.10;99.90;;;;;;5104232;28;20039;-55
2023/05/24 09:12:35;;;;;;;10.80;2.70;;;13.40;99.90;;;;;;5104805;28;20036;-55
2023/05/24 09:15:01;;;;;;;10.80;2.85;;;13.40;99.90;;;;;;5102827;28;20071;-56
2023/05/24 09:17:29;;;;;;;8.60;2.50;;;13.60;99.90;;;;;;5105566;28;20043;-54
2023/05/24 09:19:57;;;;;;;10.23;2.70;;;13.70;99.90;;;;;;5106358;28;20122;-56
2023/05/24 09:22:26;;;;;;;8.52;2.20;;;13.70;99.90;;;;;;5112175;28;20104;-56
2023/05/24 09:24:56;;;;;;;9.40;2.45;;;13.70;99.90;;;;;;5116734;28;20036;-55
2023/05/24 09:27:22;;;;;;;8.73;2.60;;;13.90;99.90;;;;;;5116835;28;20063;-57
2023/05/24 09:29:50;;;;;;;9.25;2.30;;;14.00;99.90;;;;;;5116718;28;20498;-57
2023/05/24 09:32:17;;;;;;;9.80;2.65;;;14.00;99.90;;;;;;5116836;28;20492;-54
2023/05/24 09:34:47;;;;;;;11.90;2.92;;;13.70;99.90;;;;;;5118511;28;20036;-55
2023/05/24 09:37:20;;;;;;;14.80;2.80;;;13.50;99.90;;;;;;5116654;28;20100;-55
2023/05/24 09:39:47;;;;;;;11.88;2.67;;;13.50;99.90;;;;;;5103246;28;20046;-56
2023/05/24 09:42:19;;;;;;;9.70;2.42;;;13.50;99.90;;;;;;5077800;28;20044;-55
2023/05/24 09:44:57;;;;;;;9.88;2.70;;;13.50;99.90;;;;;;5077398;28;20051;-56
2023/05/24 09:47:31;;;;;;;12.55;2.63;;;13.60;99.90;;;;;;5097861;28;20399;-56
2023/05/24 09:49:58;;;;;;;10.48;2.60;;;13.70;99.90;;;;;;5095451;28;20104;-56
2023/05/24 09:52:24;;;;;;;11.98;3.35;;;13.50;99.90;;;;;;5097807;28;20032;-57
2023/05/24 09:54:50;;;;;;;11.70;3.22;;;13.60;99.90;;;;;;5096796;28;20071;-55
2023/05/24 09:57:16;;;;;;;11.80;2.75;;;13.80;99.90;;;;;;5079236;28;20097;-56
2023/05/24 09:59:43;;;;;;;11.32;2.65;;;13.80;99.90;;;;;;5097664;28;20044;-55
2023/05/24 10:02:11;;;;;;;10.23;2.78;;;13.90;99.90;;;;;;5096238;28;20051;-56
2023/05/24 10:04:40;;;;;;;10.15;2.67;;;13.80;99.90;;;;;;5097893;28;20040;-55
2023/05/24 10:07:06;;;;;;;10.45;2.50;;;13.90;99.90;;;;;;5096328;28;20048;-56
2023/05/24 10:09:34;;;;;;;13.13;2.63;;;13.70;99.90;;;;;;5098236;28;20032;-56
2023/05/24 10:12:04;;;;;;;12.00;2.53;;;13.90;99.90;;;;;;5096911;28;20115;-56
2023/05/24 10:14:37;;;;;;;15.52;3.80;;;13.90;99.90;;;;;;5096630;28;20411;-56
2023/05/24 10:17:04;;;;;;;11.27;3.28;;;13.70;99.90;;;;;;5095495;28;20032;-56
2023/05/24 10:19:34;;;;;;;13.00;3.50;;;13.60;99.90;;;;;;5096235;28;20040;-55
2023/05/24 10:22:03;;;;;;;10.68;2.78;;;13.60;99.90;;;;;;5098939;28;20043;-55
2023/05/24 10:24:34;;;;;;;13.50;3.38;;;13.60;99.90;;;;;;5099649;28;20036;-54
2023/05/24 10:27:06;;;;;;;17.03;3.83;;;13.40;99.90;;;;;;5098301;28;20068;-55
2023/05/24 10:29:50;;;;;;;;;;;13.20;99.90;;;;;;5100517;28;20044;-56
2023/05/24 10:32:18;;;;;;;13.68;3.10;;;13.60;99.90;;;;;;5097031;28;20478;-56
2023/05/24 10:34:45;;;;;;;13.02;3.10;;;13.90;99.90;;;;;;5100822;28;20052;-55
2023/05/24 10:37:11;;;;;;;16.60;3.10;;;14.20;99.90;;;;;;5099133;28;20081;-55
2023/05/24 10:39:37;;;;;;;13.43;3.15;;;14.10;99.90;;;;;;5098924;28;20040;-55
2023/05/24 10:42:06;;;;;;;10.93;3.20;;;14.20;99.90;;;;;;5099766;28;20060;-54
2023/05/24 10:44:32;;;;;;;14.43;3.88;;;14.50;99.90;;;;;;5099720;28;20052;-56
2023/05/24 10:47:12;;;;;;;11.73;2.70;;;14.60;99.90;;;;;;5100925;28;20036;-55
2023/05/24 10:50:03;;;;;;;10.57;2.50;;;14.40;99.90;;;;;;5098509;28;20643;-55
2023/05/24 10:52:35;;;;;;;11.88;3.20;;;14.50;99.90;;;;;;5100890;28;20079;-56
2023/05/24 10:55:04;;;;;;;11.45;2.90;;;14.10;99.90;;;;;;5099902;28;20141;-55
2023/05/24 10:57:31;;;;;;;12.43;3.05;;;14.30;99.90;;;;;;5099963;28;20047;-56
2023/05/24 11:00:17;;;;;;;13.90;2.90;;;14.40;99.90;;;;;;5100448;28;20062;-55
2023/05/24 11:02:43;;;;;;;12.70;3.22;;;14.30;99.90;;;;;;5098767;28;20048;-56
2023/05/24 11:05:09;;;;;;;10.85;2.63;;;14.20;99.90;;;;;;5098344;28;20055;-54
2023/05/24 11:07:41;;;;;;;12.50;3.47;;;14.20;99.90;;;;;;5099244;28;20044;-56
2023/05/24 11:10:15;;;;;;;15.30;2.57;;;14.40;99.90;;;;;;5100108;28;20040;-57
2023/05/24 11:12:43;;;;;;;11.65;3.08;;;14.40;99.90;;;;;;5100633;28;20063;-56
2023/05/24 11:15:10;;;;;;;13.75;2.90;;;14.50;99.90;;;;;;5064204;28;20044;-55
2023/05/24 11:18:13;;;;;;;12.70;2.60;;;14.30;99.90;;;;;;5099862;28;20036;-55
2023/05/24 11:20:44;;;;;;;13.32;2.67;;;14.30;99.90;;;;;;5098945;28;20538;-55
2023/05/24 11:23:10;;;;;;;12.52;2.75;;;14.40;99.90;;;;;;5098737;28;20056;-56
2023/05/24 11:25:37;;;;;;;10.07;2.70;;;14.40;99.90;;;;;;5081634;28;20491;-55
2023/05/24 11:28:06;;;;;;;15.10;3.28;;;14.70;99.90;;;;;;5098042;28;20128;-56
2023/05/24 11:30:32;;;;;;;11.98;2.92;;;14.70;99.90;;;;;;5099382;28;20036;-55
2023/05/24 11:33:00;;;;;;;9.57;2.00;;;14.80;99.90;;;;;;5097399;28;20052;-57
2023/05/24 11:35:29;;;;;;;10.70;2.78;;;15.00;99.90;;;;;;5101198;28;20043;-55
2023/05/24 11:37:57;;;;;;;15.23;3.47;;;15.00;99.90;;;;;;5107285;28;20047;-56
2023/05/24 11:40:23;;;;;;;14.20;2.75;;;14.60;99.90;;;;;;5106751;28;20060;-54
2023/05/24 11:42:49;;;;;;;11.75;2.80;;;14.50;99.90;;;;;;5107715;28;20930;-55
2023/05/24 11:45:20;;;;;;;12.27;2.97;;;14.90;99.90;;;;;;5105959;28;20038;-55
2023/05/24 11:47:48;;;;;;;12.77;2.67;;;14.80;99.90;;;;;;5108587;28;20096;-54
2023/05/24 11:50:22;;;;;;;14.60;3.00;;;14.70;99.90;;;;;;5106479;28;20038;-54
2023/05/24 11:52:48;;;;;;;13.00;2.72;;;14.60;99.90;;;;;;5107127;28;20055;-54
2023/05/24 11:55:15;;;;;;;9.57;2.90;;;15.00;99.90;;;;;;5107953;28;20051;-53
2023/05/24 11:57:47;;;;;;;9.00;2.45;;;14.80;99.90;;;;;;5106536;28;20092;-52
2023/05/24 12:00:16;;;;;;;11.90;4.30;;;15.10;99.90;;;;;;5107557;28;20040;-53
2023/05/24 12:02:42;;;;;;;12.88;2.80;;;15.60;99.90;;;;;;5103617;28;20104;-56
2023/05/24 12:05:10;;;;;;;12.48;2.42;;;15.70;99.90;;;;;;5097802;28;20040;-56
2023/05/24 12:07:36;;;;;;;11.23;2.60;;;15.50;99.90;;;;;;5092703;28;20063;-56
2023/05/24 12:10:03;;;;;;;10.35;2.65;;;15.40;99.90;;;;;;5097956;28;20131;-56
2023/05/24 12:12:29;;;;;;;11.32;3.08;;;15.40;99.90;;;;;;5098158;28;20054;-56
2023/05/24 12:14:55;;;;;;;13.77;2.58;;;15.50;99.90;;;;;;5097106;28;20119;-56
2023/05/24 12:17:21;;;;;;;9.80;2.70;;;15.60;99.90;;;;;;5098857;28;20134;-57
2023/05/24 12:19:50;;;;;;;10.98;2.63;;;15.10;99.90;;;;;;5096486;28;20044;-57
2023/05/24 12:22:16;;;;;;;9.82;2.28;;;15.50;99.90;;;;;;5099147;28;20059;-56
2023/05/24 12:24:42;;;;;;;12.30;2.97;;;15.60;99.90;;;;;;5097442;28;20439;-56
2023/05/24 12:27:09;;;;;;;8.88;3.25;;;15.20;99.90;;;;;;5098419;28;20396;-56
2023/05/24 12:29:36;;;;;;;10.43;3.00;;;15.50;99.90;;;;;;5098399;28;20119;-56
2023/05/24 12:32:02;;;;;;;14.32;2.92;;;15.10;99.90;;;;;;5096820;28;20672;-56
2023/05/24 12:34:28;;;;;;;10.48;2.70;;;15.50;99.90;;;;;;5080206;28;20044;-57
2023/05/24 12:36:55;;;;;;;14.05;3.88;;;15.40;99.90;;;;;;5096526;28;20079;-56
2023/05/24 12:39:30;;;;;;;13.00;2.70;;;15.20;99.90;;;;;;5080204;28;20044;-56
2023/05/24 12:41:57;;;;;;;10.70;2.30;;;15.10;99.90;;;;;;5096179;28;20052;-57
2023/05/24 12:44:27;;;;;;;12.40;2.85;;;15.30;99.90;;;;;;5096589;28;20075;-56